Terminal Aerodrome Forecast
Issued by NWS Charleston, SC

Home | Current Version | Previous Version | Text Only | Print | Product List | Glossary On
Versions: 1 2 3 4 5 6 7 8 9 10 11 12 13 14
000
FTUS42 KCHS 281200 CCA
TAFCHS
TAF COR
KCHS 281209Z 2812/2912 00000KT P6SM SCT025
      TEMPO 2812/2813 BKN025
     FM281500 23008KT P6SM SCT015 SCT080
     FM290200 VRB03KT 4SM BR SCT010 BKN020
     FM290600 VRB03KT 1/2SM FG OVC004=

USA.gov is the U.S. government's official web portal to all federal, state and local government web resources and services.